createdAt,value
2023-04-29T00:00:00.929Z,11.54
2023-04-29T00:03:58.195Z,11.52
2023-04-29T00:07:44.109Z,11.56
2023-04-29T00:11:17.097Z,11.57
2023-04-29T00:15:05.737Z,11.59
2023-04-29T00:18:55.076Z,11.57
2023-04-29T00:22:34.520Z,11.53
2023-04-29T00:26:04.180Z,11.52
2023-04-29T00:29:54.027Z,11.55
2023-04-29T00:33:42.926Z,11.54
2023-04-29T00:37:31.141Z,11.60
2023-04-29T00:41:02.166Z,11.57
2023-04-29T00:44:51.287Z,11.59
2023-04-29T00:48:40.364Z,11.54
2023-04-29T00:52:21.986Z,11.55
2023-04-29T00:56:07.197Z,11.59
2023-04-29T00:59:38.969Z,11.46
2023-04-29T01:03:18.005Z,11.43
2023-04-29T01:07:16.305Z,11.50
2023-04-29T01:11:09.691Z,11.47
2023-04-29T01:14:43.028Z,11.47
2023-04-29T01:18:36.344Z,11.51
2023-04-29T01:22:17.187Z,11.53
2023-04-29T01:25:34.744Z,11.42
2023-04-29T01:29:16.959Z,11.40
2023-04-29T01:33:03.880Z,11.30
2023-04-29T01:36:54.674Z,11.20
2023-04-29T01:40:38.559Z,11.25
2023-04-29T01:44:18.111Z,11.22
2023-04-29T01:48:00.870Z,11.07
2023-04-29T01:51:43.730Z,10.99
2023-04-29T01:55:15.032Z,10.94
2023-04-29T01:58:29.485Z,10.93
2023-04-29T02:02:18.535Z,10.97
2023-04-29T02:06:00.325Z,10.95
2023-04-29T02:09:48.776Z,10.88
2023-04-29T02:13:15.805Z,10.87
2023-04-29T02:17:10.394Z,10.90
2023-04-29T02:20:46.418Z,10.86
2023-04-29T02:24:35.148Z,10.79
2023-04-29T02:28:16.505Z,10.75
2023-04-29T02:31:57.703Z,10.73
2023-04-29T02:35:46.684Z,10.65
2023-04-29T02:39:16.452Z,10.52
2023-04-29T02:43:04.984Z,10.51
2023-04-29T02:46:46.382Z,10.53
2023-04-29T02:50:35.018Z,10.56
2023-04-29T02:54:23.426Z,10.48
2023-04-29T02:58:12.339Z,10.38
2023-04-29T03:01:27.861Z,10.38
2023-04-29T03:05:16.166Z,10.40
2023-04-29T03:08:56.836Z,10.34
2023-04-29T03:12:38.384Z,10.51
2023-04-29T03:16:20.221Z,10.47
2023-04-29T03:20:09.541Z,10.41
2023-04-29T03:23:50.045Z,10.41
2023-04-29T03:27:08.929Z,10.42
2023-04-29T03:30:40.753Z,10.41
2023-04-29T03:34:28.450Z,10.39
2023-04-29T03:38:17.984Z,10.50
2023-04-29T03:42:01.847Z,10.60
2023-04-29T03:45:52.729Z,10.72
2023-04-29T03:49:37.239Z,10.81
2023-04-29T03:53:07.310Z,10.92
2023-04-29T03:56:49.154Z,11.01
2023-04-29T04:00:38.124Z,11.05
2023-04-29T04:04:00.993Z,11.11
2023-04-29T04:07:42.945Z,11.06
2023-04-29T04:11:10.638Z,11.04
2023-04-29T04:14:37.729Z,11.00
2023-04-29T04:18:06.628Z,10.96
2023-04-29T04:21:17.005Z,11.03
2023-04-29T04:24:49.885Z,11.11
2023-04-29T04:28:10.183Z,11.19
2023-04-29T04:31:58.939Z,11.29
2023-04-29T04:35:47.690Z,11.37
2023-04-29T04:39:20.741Z,11.42
2023-04-29T04:42:53.555Z,11.42
2023-04-29T04:46:38.094Z,11.41
2023-04-29T04:50:06.259Z,11.50
2023-04-29T04:53:47.271Z,11.61
2023-04-29T04:57:36.370Z,11.69
2023-04-29T05:01:08.409Z,11.77
2023-04-29T05:04:39.777Z,11.91
2023-04-29T05:08:08.952Z,12.19
2023-04-29T05:11:31.181Z,12.43
2023-04-29T05:15:23.118Z,12.54
2023-04-29T05:19:12.080Z,12.76
2023-04-29T05:22:25.399Z,12.97
2023-04-29T05:25:57.777Z,12.90
2023-04-29T05:28:56.883Z,12.90
2023-04-29T05:32:31.573Z,12.94
2023-04-29T05:36:09.955Z,13.04
2023-04-29T05:39:51.160Z,13.07
2023-04-29T05:43:40.108Z,13.32
2023-04-29T05:47:19.607Z,13.39
2023-04-29T05:51:09.289Z,13.60
2023-04-29T05:54:32.444Z,13.77
2023-04-29T05:58:21.459Z,13.79
2023-04-29T06:02:11.601Z,13.81
2023-04-29T06:05:47.336Z,14.04
2023-04-29T06:09:42.690Z,14.08
2023-04-29T06:13:31.446Z,14.05
2023-04-29T06:16:55.954Z,14.36
2023-04-29T06:20:43.658Z,14.25
2023-04-29T06:24:32.868Z,14.42
2023-04-29T06:28:22.053Z,14.51
2023-04-29T06:32:12.075Z,14.56
2023-04-29T06:35:42.158Z,14.80
2023-04-29T06:39:33.088Z,15.00
2023-04-29T06:43:21.402Z,14.98
2023-04-29T06:47:13.907Z,14.85
2023-04-29T06:50:45.987Z,15.21
2023-04-29T06:54:01.530Z,15.35
2023-04-29T06:57:44.080Z,15.32
2023-04-29T07:01:19.630Z,15.34
2023-04-29T07:05:09.969Z,15.34
2023-04-29T07:08:54.787Z,15.57
2023-04-29T07:12:46.148Z,15.47
2023-04-29T07:16:35.734Z,15.53
2023-04-29T07:20:25.960Z,15.62
2023-04-29T07:24:07.467Z,15.83
2023-04-29T07:27:53.104Z,15.93
2023-04-29T07:31:37.473Z,15.99
2023-04-29T07:35:29.548Z,16.39
2023-04-29T07:39:19.781Z,17.12
2023-04-29T07:43:03.755Z,18.01
2023-04-29T07:46:44.342Z,18.16
2023-04-29T07:50:34.425Z,18.65
2023-04-29T07:54:28.086Z,18.82
2023-04-29T07:58:14.086Z,18.83
2023-04-29T08:02:14.126Z,19.35
2023-04-29T08:06:07.423Z,19.48
2023-04-29T08:09:36.106Z,19.40
2023-04-29T08:13:28.607Z,19.29
2023-04-29T08:17:18.872Z,19.68
2023-04-29T08:21:09.112Z,20.19
2023-04-29T08:24:59.329Z,20.01
2023-04-29T08:28:35.994Z,20.03
2023-04-29T08:32:24.544Z,19.80
2023-04-29T08:36:14.491Z,19.91
2023-04-29T08:40:11.545Z,20.04
2023-04-29T08:44:02.310Z,20.19
2023-04-29T08:47:51.623Z,20.64
2023-04-29T08:51:39.043Z,20.83
2023-04-29T08:55:20.103Z,20.75
2023-04-29T08:59:10.146Z,20.89
2023-04-29T09:02:59.847Z,20.99
2023-04-29T09:06:51.028Z,21.33
2023-04-29T09:10:41.037Z,21.62
2023-04-29T09:14:32.569Z,21.78
2023-04-29T09:18:22.705Z,21.08
2023-04-29T09:22:20.485Z,20.49
2023-04-29T09:26:15.722Z,19.87
2023-04-29T09:29:48.754Z,19.48
2023-04-29T09:33:34.431Z,19.01
2023-04-29T09:37:06.966Z,18.38
2023-04-29T09:41:08.935Z,18.01
2023-04-29T09:44:44.870Z,18.10
2023-04-29T09:48:23.411Z,18.14
2023-04-29T09:51:52.453Z,18.09
2023-04-29T09:55:41.554Z,18.13
2023-04-29T09:59:14.010Z,18.33
2023-04-29T10:03:04.553Z,18.37
2023-04-29T10:06:54.223Z,18.37
2023-04-29T10:10:33.163Z,18.30
2023-04-29T10:14:13.785Z,18.22
2023-04-29T10:17:28.865Z,17.86
2023-04-29T10:20:55.379Z,17.60
2023-04-29T10:24:31.472Z,17.22
2023-04-29T10:28:20.783Z,17.06
2023-04-29T10:31:47.663Z,17.26
2023-04-29T10:35:37.060Z,17.55
2023-04-29T10:39:32.443Z,18.14
2023-04-29T10:43:14.667Z,18.44
2023-04-29T10:47:09.789Z,18.33
2023-04-29T10:50:55.745Z,18.37
2023-04-29T10:54:38.540Z,18.56
2023-04-29T10:58:28.329Z,19.06
2023-04-29T11:02:24.271Z,19.77
2023-04-29T11:06:14.273Z,19.86
2023-04-29T11:10:11.445Z,19.71
2023-04-29T11:14:03.624Z,19.29
2023-04-29T11:17:59.552Z,19.25
2023-04-29T11:21:59.952Z,19.13
2023-04-29T11:25:49.888Z,18.88
2023-04-29T11:29:32.750Z,18.70
2023-04-29T11:33:22.099Z,18.70
2023-04-29T11:37:11.317Z,18.57
2023-04-29T11:41:01.026Z,18.48
2023-04-29T11:44:49.484Z,18.61
2023-04-29T11:48:39.220Z,18.88
2023-04-29T11:52:29.513Z,18.96
2023-04-29T11:56:12.971Z,18.74
2023-04-29T12:00:02.928Z,18.52
2023-04-29T12:03:56.474Z,18.83
2023-04-29T12:07:46.111Z,19.02
2023-04-29T12:11:35.303Z,18.74
2023-04-29T12:15:06.600Z,19.07
2023-04-29T12:18:56.119Z,19.43
2023-04-29T12:22:41.111Z,19.66
2023-04-29T12:26:31.176Z,20.19
2023-04-29T12:30:25.461Z,20.46
2023-04-29T12:34:30.956Z,21.18
2023-04-29T12:38:11.694Z,21.30
2023-04-29T12:42:01.356Z,21.61
2023-04-29T12:45:50.340Z,21.75
2023-04-29T12:49:43.753Z,22.19
2023-04-29T12:53:33.513Z,22.42
2023-04-29T12:57:14.995Z,21.46
2023-04-29T13:01:04.625Z,21.54
2023-04-29T13:04:53.984Z,21.43
2023-04-29T13:08:43.179Z,21.01
2023-04-29T13:12:32.015Z,20.76
2023-04-29T13:16:14.882Z,20.72
2023-04-29T13:20:06.374Z,19.93
2023-04-29T13:23:55.180Z,19.17
2023-04-29T13:27:44.852Z,18.46
2023-04-29T13:30:59.586Z,17.91
2023-04-29T13:34:48.647Z,17.78
2023-04-29T13:38:39.033Z,17.41
2023-04-29T13:42:26.181Z,17.28
2023-04-29T13:45:57.303Z,17.28
2023-04-29T13:54:26.229Z,16.76
2023-04-29T13:58:03.034Z,16.51
2023-04-29T14:05:26.476Z,16.52
2023-04-29T14:09:16.038Z,16.54
2023-04-29T14:13:05.509Z,16.69
2023-04-29T14:16:54.912Z,16.84
2023-04-29T14:20:43.765Z,17.15
2023-04-29T14:24:18.631Z,17.28
2023-04-29T14:28:08.120Z,17.53
2023-04-29T14:31:57.671Z,17.58
2023-04-29T14:35:37.282Z,17.51
2023-04-29T14:38:51.105Z,17.48
2023-04-29T14:42:23.014Z,17.41
2023-04-29T14:45:57.842Z,17.31
2023-04-29T14:49:47.832Z,17.31
2023-04-29T14:53:28.058Z,17.25
2023-04-29T14:57:07.904Z,17.30
2023-04-29T15:00:57.369Z,17.26
2023-04-29T15:04:26.520Z,17.25
2023-04-29T15:08:03.620Z,17.15
2023-04-29T15:11:45.936Z,17.09
2023-04-29T15:15:36.457Z,17.12
2023-04-29T15:19:27.085Z,17.19
2023-04-29T15:23:15.931Z,16.97
2023-04-29T15:27:06.310Z,16.77
2023-04-29T15:30:57.404Z,16.59
2023-04-29T15:34:39.145Z,16.40
2023-04-29T15:38:24.783Z,16.24
2023-04-29T15:41:47.591Z,15.75
2023-04-29T15:45:29.102Z,15.47
2023-04-29T15:49:15.049Z,15.49
2023-04-29T15:53:05.123Z,15.23
2023-04-29T15:56:51.958Z,15.17
2023-04-29T16:00:25.439Z,15.06
2023-04-29T16:03:38.139Z,14.95
2023-04-29T16:07:11.242Z,15.00
2023-04-29T16:10:54.334Z,14.78
2023-04-29T16:14:32.502Z,14.42
2023-04-29T16:18:22.541Z,14.10
2023-04-29T16:21:55.678Z,13.98
2023-04-29T16:25:47.000Z,13.77
2023-04-29T16:29:12.659Z,13.64
2023-04-29T16:33:04.462Z,13.52
2023-04-29T16:36:54.801Z,13.33
2023-04-29T16:40:28.168Z,13.26
2023-04-29T16:44:01.226Z,13.19
2023-04-29T16:47:44.752Z,13.24
2023-04-29T16:51:35.030Z,13.20
2023-04-29T16:54:49.879Z,13.17
2023-04-29T16:58:04.572Z,13.10
2023-04-29T17:01:40.811Z,13.07
2023-04-29T17:05:26.997Z,13.01
2023-04-29T17:09:13.524Z,12.99
2023-04-29T17:12:32.265Z,13.05
2023-04-29T17:16:04.046Z,13.04
2023-04-29T17:19:53.582Z,12.98
2023-04-29T17:23:44.601Z,12.82
2023-04-29T17:27:35.327Z,12.82
2023-04-29T17:31:24.650Z,12.74
2023-04-29T17:34:47.039Z,12.76
2023-04-29T17:38:26.337Z,12.89
2023-04-29T17:41:55.531Z,12.94
2023-04-29T17:45:10.851Z,12.94
2023-04-29T17:47:49.935Z,12.91
2023-04-29T17:51:28.417Z,12.87
2023-04-29T17:55:09.267Z,12.74
2023-04-29T17:58:35.924Z,12.76
2023-04-29T18:02:25.895Z,12.81
2023-04-29T18:05:50.178Z,12.70
2023-04-29T18:09:17.151Z,12.67
2023-04-29T18:12:26.855Z,12.45
2023-04-29T18:15:43.018Z,12.38
2023-04-29T18:19:26.591Z,12.40
2023-04-29T18:22:36.224Z,12.30
2023-04-29T18:26:28.594Z,12.33
2023-04-29T18:30:16.385Z,12.24
2023-04-29T18:33:42.535Z,12.33
2023-04-29T18:37:12.641Z,12.30
2023-04-29T18:40:30.644Z,12.20
2023-04-29T18:44:04.225Z,12.17
2023-04-29T18:47:25.976Z,12.17
2023-04-29T18:50:56.437Z,12.07
2023-04-29T18:54:22.019Z,11.99
2023-04-29T18:58:15.336Z,11.99
2023-04-29T19:01:45.993Z,11.90
2023-04-29T19:05:27.115Z,11.89
2023-04-29T19:09:18.895Z,11.94
2023-04-29T19:12:44.535Z,11.87
2023-04-29T19:16:36.306Z,11.88
2023-04-29T19:20:26.665Z,11.89
2023-04-29T19:24:16.147Z,11.80
2023-04-29T19:27:48.962Z,11.78
2023-04-29T19:31:13.055Z,11.72
2023-04-29T19:35:01.542Z,11.67
2023-04-29T19:38:51.291Z,11.51
2023-04-29T19:42:32.697Z,11.30
2023-04-29T19:46:15.006Z,11.27
2023-04-29T19:49:58.689Z,11.13
2023-04-29T19:53:47.151Z,11.16
2023-04-29T19:59:51.806Z,11.09
2023-04-29T20:03:40.095Z,11.19
2023-04-29T20:07:11.345Z,11.23
2023-04-29T20:10:52.086Z,11.24
2023-04-29T20:16:25.024Z,10.92
2023-04-29T20:20:45.798Z,10.99
2023-04-29T20:24:55.400Z,10.99
2023-04-29T20:28:59.381Z,10.96
2023-04-29T20:32:52.426Z,10.86
2023-04-29T20:36:42.914Z,10.90
2023-04-29T20:40:39.087Z,10.84
2023-04-29T20:44:49.231Z,10.85
2023-04-29T20:49:17.734Z,10.76
2023-04-29T20:53:45.185Z,10.79
2023-04-29T20:57:57.772Z,10.77
2023-04-29T21:01:47.927Z,10.71
2023-04-29T21:05:46.664Z,10.67
2023-04-29T21:09:56.507Z,10.61
2023-04-29T21:14:07.057Z,10.64
2023-04-29T21:18:00.235Z,10.65
2023-04-29T21:22:08.478Z,10.71
2023-04-29T21:25:58.308Z,10.64
2023-04-29T21:29:51.821Z,10.66
2023-04-29T21:34:00.859Z,10.66
2023-04-29T21:37:54.277Z,10.66
2023-04-29T21:41:42.670Z,10.67
2023-04-29T21:45:37.185Z,10.59
2023-04-29T21:49:57.235Z,10.59
2023-04-29T21:54:08.660Z,10.61
2023-04-29T21:58:36.352Z,10.64
2023-04-29T22:02:24.346Z,10.61
2023-04-29T22:06:32.574Z,10.55
2023-04-29T22:10:40.298Z,10.55
2023-04-29T22:14:49.021Z,10.56
2023-04-29T22:18:39.789Z,10.56
2023-04-29T22:22:40.200Z,10.50
2023-04-29T22:26:30.252Z,10.41
2023-04-29T22:30:18.228Z,10.40
2023-04-29T22:34:06.802Z,10.40
2023-04-29T22:37:55.091Z,10.36
2023-04-29T22:41:43.018Z,10.35
2023-04-29T22:45:40.355Z,10.32
2023-04-29T22:49:48.478Z,10.26
2023-04-29T22:53:36.915Z,10.24
2023-04-29T22:57:26.020Z,10.17
2023-04-29T23:01:30.547Z,10.12
2023-04-29T23:05:20.301Z,10.01
2023-04-29T23:09:08.890Z,9.91
2023-04-29T23:13:16.431Z,9.77
2023-04-29T23:17:05.769Z,9.66
2023-04-29T23:21:17.146Z,9.55
2023-04-29T23:25:06.202Z,9.45
2023-04-29T23:28:54.112Z,9.33
2023-04-29T23:32:50.873Z,9.21
2023-04-29T23:36:38.697Z,9.08
2023-04-29T23:40:27.656Z,8.97
2023-04-29T23:44:15.431Z,8.90
2023-04-29T23:48:04.353Z,8.79
2023-04-29T23:51:56.940Z,8.70
2023-04-29T23:55:49.279Z,8.56
2023-04-29T23:59:37.321Z,8.45
